sensor_id;sensor_type;location;lat;lon;timestamp;temperature;humidity
33460;DHT22;19795;53.160;6.612;2022-09-20T04:07:03;6.20;99.90
33460;DHT22;19795;53.160;6.612;2022-09-20T04:18:22;6.30;99.90
33460;DHT22;19795;53.160;6.612;2022-09-20T04:26:52;6.50;99.90
33460;DHT22;19795;53.160;6.612;2022-09-20T04:29:46;6.50;99.90
33460;DHT22;19795;53.160;6.612;2022-09-20T04:32:30;6.60;99.90
33460;DHT22;19795;53.160;6.612;2022-09-20T04:35:46;6.60;99.90
33460;DHT22;19795;53.160;6.612;2022-09-20T04:38:40;6.70;99.90
33460;DHT22;19795;53.160;6.612;2022-09-20T04:44:11;6.70;99.90
33460;DHT22;19795;53.160;6.612;2022-09-20T04:55:23;6.60;99.90
33460;DHT22;19795;53.160;6.612;2022-09-20T05:11:59;6.60;99.90
33460;DHT22;19795;53.160;6.612;2022-09-20T05:34:43;7.20;99.90
33460;DHT22;19795;53.160;6.612;2022-09-20T05:40:05;7.50;99.90
33460;DHT22;19795;53.160;6.612;2022-09-20T05:42:58;7.60;99.90
33460;DHT22;19795;53.160;6.612;2022-09-20T05:51:46;8.00;99.90
33460;DHT22;19795;53.160;6.612;2022-09-20T05:57:34;8.20;99.90
33460;DHT22;19795;53.160;6.612;2022-09-20T06:00:11;8.30;99.90
33460;DHT22;19795;53.160;6.612;2022-09-20T06:06:03;8.40;99.90
33460;DHT22;19795;53.160;6.612;2022-09-20T06:19:25;8.10;99.90
33460;DHT22;19795;53.160;6.612;2022-09-20T06:22:00;8.00;99.90
33460;DHT22;19795;53.160;6.612;2022-09-20T06:24:50;8.20;99.90
33460;DHT22;19795;53.160;6.612;2022-09-20T06:27:33;8.40;99.90
33460;DHT22;19795;53.160;6.612;2022-09-20T06:30:26;8.70;99.90
33460;DHT22;19795;53.160;6.612;2022-09-20T06:38:42;9.60;99.90
33460;DHT22;19795;53.160;6.612;2022-09-20T06:41:38;9.90;99.90
33460;DHT22;19795;53.160;6.612;2022-09-20T06:44:05;10.30;99.90
33460;DHT22;19795;53.160;6.612;2022-09-20T06:46:33;10.40;99.90
33460;DHT22;19795;53.160;6.612;2022-09-20T06:49:00;10.30;99.90
33460;DHT22;19795;53.160;6.612;2022-09-20T06:51:38;10.50;99.90
33460;DHT22;19795;53.160;6.612;2022-09-20T06:54:24;10.40;99.90
33460;DHT22;19795;53.160;6.612;2022-09-20T06:56:54;10.60;99.90
33460;DHT22;19795;53.160;6.612;2022-09-20T07:02:48;10.70;99.90
33460;DHT22;19795;53.160;6.612;2022-09-20T07:05:15;10.80;99.90
33460;DHT22;19795;53.160;6.612;2022-09-20T07:07:41;10.70;99.90
33460;DHT22;19795;53.160;6.612;2022-09-20T07:10:10;10.80;99.90
33460;DHT22;19795;53.160;6.612;2022-09-20T07:19:45;11.10;99.90
33460;DHT22;19795;53.160;6.612;2022-09-20T07:22:14;11.30;99.90
33460;DHT22;19795;53.160;6.612;2022-09-20T07:24:43;11.50;99.90
33460;DHT22;19795;53.160;6.612;2022-09-20T07:27:17;11.60;99.90
33460;DHT22;19795;53.160;6.612;2022-09-20T07:32:42;11.90;99.90
33460;DHT22;19795;53.160;6.612;2022-09-20T07:35:17;12.10;99.90
33460;DHT22;19795;53.160;6.612;2022-09-20T07:37:44;12.60;99.90
33460;DHT22;19795;53.160;6.612;2022-09-20T07:40:11;13.40;99.90
33460;DHT22;19795;53.160;6.612;2022-09-20T07:49:21;15.20;99.90
33460;DHT22;19795;53.160;6.612;2022-09-20T07:51:58;15.80;99.90
33460;DHT22;19795;53.160;6.612;2022-09-20T07:54:23;16.20;99.90
33460;DHT22;19795;53.160;6.612;2022-09-20T07:56:51;16.60;99.90
33460;DHT22;19795;53.160;6.612;2022-09-20T07:59:17;16.70;99.90
33460;DHT22;19795;53.160;6.612;2022-09-20T08:01:43;16.50;99.90
33460;DHT22;19795;53.160;6.612;2022-09-20T08:04:09;16.00;99.90
33460;DHT22;19795;53.160;6.612;2022-09-20T08:06:37;15.80;99.90
33460;DHT22;19795;53.160;6.612;2022-09-20T08:09:04;16.10;99.90
33460;DHT22;19795;53.160;6.612;2022-09-20T08:11:48;15.90;99.90
33460;DHT22;19795;53.160;6.612;2022-09-20T08:14:19;15.90;99.90
33460;DHT22;19795;53.160;6.612;2022-09-20T08:17:12;15.90;99.90
33460;DHT22;19795;53.160;6.612;2022-09-20T08:19:44;16.00;99.90
33460;DHT22;19795;53.160;6.612;2022-09-20T08:22:15;15.80;99.90
33460;DHT22;19795;53.160;6.612;2022-09-20T08:24:41;16.10;99.90
33460;DHT22;19795;53.160;6.612;2022-09-20T08:30:29;16.20;99.90
33460;DHT22;19795;53.160;6.612;2022-09-20T08:36:34;17.40;99.90
33460;DHT22;19795;53.160;6.612;2022-09-20T08:39:05;17.40;99.90
33460;DHT22;19795;53.160;6.612;2022-09-20T08:46:48;17.00;99.90
33460;DHT22;19795;53.160;6.612;2022-09-20T08:49:37;17.10;99.90
33460;DHT22;19795;53.160;6.612;2022-09-20T08:55:55;16.40;99.90
33460;DHT22;19795;53.160;6.612;2022-09-20T09:09:40;16.30;99.90
33460;DHT22;19795;53.160;6.612;2022-09-20T09:12:34;15.90;99.90
33460;DHT22;19795;53.160;6.612;2022-09-20T09:18:41;15.60;99.90
33460;DHT22;19795;53.160;6.612;2022-09-20T09:21:42;16.20;99.90
33460;DHT22;19795;53.160;6.612;2022-09-20T09:24:23;16.80;99.90
33460;DHT22;19795;53.160;6.612;2022-09-20T09:27:17;17.00;99.90
33460;DHT22;19795;53.160;6.612;2022-09-20T09:29:53;17.30;99.90
33460;DHT22;19795;53.160;6.612;2022-09-20T09:32:30;17.30;99.90
33460;DHT22;19795;53.160;6.612;2022-09-20T09:35:29;17.30;99.90
33460;DHT22;19795;53.160;6.612;2022-09-20T09:38:18;17.30;99.90
33460;DHT22;19795;53.160;6.612;2022-09-20T09:44:06;17.10;99.90
33460;DHT22;19795;53.160;6.612;2022-09-20T09:46:36;16.70;99.90
33460;DHT22;19795;53.160;6.612;2022-09-20T09:49:14;16.70;99.90
33460;DHT22;19795;53.160;6.612;2022-09-20T09:52:14;17.00;99.90
33460;DHT22;19795;53.160;6.612;2022-09-20T09:54:49;17.30;99.90
33460;DHT22;19795;53.160;6.612;2022-09-20T10:00:35;16.70;99.90
33460;DHT22;19795;53.160;6.612;2022-09-20T10:09:42;16.50;99.90
33460;DHT22;19795;53.160;6.612;2022-09-20T10:15:44;16.80;99.90
33460;DHT22;19795;53.160;6.612;2022-09-20T10:18:20;17.40;99.90
33460;DHT22;19795;53.160;6.612;2022-09-20T10:21:20;18.10;99.90
33460;DHT22;19795;53.160;6.612;2022-09-20T10:32:50;18.80;99.90
33460;DHT22;19795;53.160;6.612;2022-09-20T10:35:54;19.20;99.90
33460;DHT22;19795;53.160;6.612;2022-09-20T10:38:37;19.20;99.90
33460;DHT22;19795;53.160;6.612;2022-09-20T10:41:35;18.60;99.90
33460;DHT22;19795;53.160;6.612;2022-09-20T10:48:16;17.50;99.90
33460;DHT22;19795;53.160;6.612;2022-09-20T10:53:24;17.40;99.90
33460;DHT22;19795;53.160;6.612;2022-09-20T11:07:09;17.80;99.90
33460;DHT22;19795;53.160;6.612;2022-09-20T11:09:39;17.10;99.90
33460;DHT22;19795;53.160;6.612;2022-09-20T11:15:33;16.60;99.90
33460;DHT22;19795;53.160;6.612;2022-09-20T11:18:26;16.70;99.90
33460;DHT22;19795;53.160;6.612;2022-09-20T11:21:01;16.60;99.90
33460;DHT22;19795;53.160;6.612;2022-09-20T11:23:38;16.50;99.90
33460;DHT22;19795;53.160;6.612;2022-09-20T11:26:15;16.30;99.90
33460;DHT22;19795;53.160;6.612;2022-09-20T11:28:51;16.20;99.90
33460;DHT22;19795;53.160;6.612;2022-09-20T11:33:59;16.20;99.90
33460;DHT22;19795;53.160;6.612;2022-09-20T11:39:32;16.30;99.90
33460;DHT22;19795;53.160;6.612;2022-09-20T11:42:00;16.70;99.90
33460;DHT22;19795;53.160;6.612;2022-09-20T11:44:29;17.10;99.90
33460;DHT22;19795;53.160;6.612;2022-09-20T11:55:33;16.70;99.90
33460;DHT22;19795;53.160;6.612;2022-09-20T11:58:05;17.20;99.90
33460;DHT22;19795;53.160;6.612;2022-09-20T12:00:35;17.70;99.40
33460;DHT22;19795;53.160;6.612;2022-09-20T12:18:00;17.00;99.90
33460;DHT22;19795;53.160;6.612;2022-09-20T12:26:34;16.30;99.90
33460;DHT22;19795;53.160;6.612;2022-09-20T12:31:50;16.10;99.90
33460;DHT22;19795;53.160;6.612;2022-09-20T12:37:43;16.00;99.90
33460;DHT22;19795;53.160;6.612;2022-09-20T12:40:20;16.10;99.90
33460;DHT22;19795;53.160;6.612;2022-09-20T12:43:16;16.20;99.90
33460;DHT22;19795;53.160;6.612;2022-09-20T12:45:54;16.60;99.90
33460;DHT22;19795;53.160;6.612;2022-09-20T12:48:35;16.50;99.90
33460;DHT22;19795;53.160;6.612;2022-09-20T12:51:23;16.30;99.90
33460;DHT22;19795;53.160;6.612;2022-09-20T12:54:10;16.30;99.90
33460;DHT22;19795;53.160;6.612;2022-09-20T12:56:47;17.10;99.90
33460;DHT22;19795;53.160;6.612;2022-09-20T12:59:52;17.80;99.90
33460;DHT22;19795;53.160;6.612;2022-09-20T13:02:55;18.70;99.90
33460;DHT22;19795;53.160;6.612;2022-09-20T13:05:42;18.90;99.90
33460;DHT22;19795;53.160;6.612;2022-09-20T13:11:43;19.50;99.90
33460;DHT22;19795;53.160;6.612;2022-09-20T13:21:31;18.80;99.90
33460;DHT22;19795;53.160;6.612;2022-09-20T13:24:01;18.70;99.90
33460;DHT22;19795;53.160;6.612;2022-09-20T14:43:04;15.70;99.90
33460;DHT22;19795;53.160;6.612;2022-09-20T15:02:16;16.10;99.90
33460;DHT22;19795;53.160;6.612;2022-09-20T15:04:55;16.10;99.90
33460;DHT22;19795;53.160;6.612;2022-09-20T15:07:23;16.10;99.90
33460;DHT22;19795;53.160;6.612;2022-09-20T15:09:49;15.90;99.90
33460;DHT22;19795;53.160;6.612;2022-09-20T15:16:04;15.70;99.90
33460;DHT22;19795;53.160;6.612;2022-09-20T15:28:33;15.00;99.90
33460;DHT22;19795;53.160;6.612;2022-09-20T15:30:59;14.80;99.90
33460;DHT22;19795;53.160;6.612;2022-09-20T15:33:28;14.80;99.90
33460;DHT22;19795;53.160;6.612;2022-09-20T15:35:55;14.90;99.90
33460;DHT22;19795;53.160;6.612;2022-09-20T15:51:16;14.60;99.90
33460;DHT22;19795;53.160;6.612;2022-09-20T15:53:44;14.60;99.90
33460;DHT22;19795;53.160;6.612;2022-09-20T15:56:24;14.50;99.90
33460;DHT22;19795;53.160;6.612;2022-09-20T15:58:54;14.50;99.90
33460;DHT22;19795;53.160;6.612;2022-09-20T16:01:33;14.50;99.90
33460;DHT22;19795;53.160;6.612;2022-09-20T16:04:12;14.50;99.90
33460;DHT22;19795;53.160;6.612;2022-09-20T16:06:40;14.50;99.90
33460;DHT22;19795;53.160;6.612;2022-09-20T16:09:06;14.50;99.90
33460;DHT22;19795;53.160;6.612;2022-09-20T16:11:39;14.50;99.90
33460;DHT22;19795;53.160;6.612;2022-09-20T16:14:05;14.50;99.90
33460;DHT22;19795;53.160;6.612;2022-09-20T16:16:32;14.50;99.90
33460;DHT22;19795;53.160;6.612;2022-09-20T16:19:10;14.40;99.90
33460;DHT22;19795;53.160;6.612;2022-09-20T16:21:43;14.30;99.90
33460;DHT22;19795;53.160;6.612;2022-09-20T16:24:11;14.20;99.90
33460;DHT22;19795;53.160;6.612;2022-09-20T16:26:38;14.20;99.90
33460;DHT22;19795;53.160;6.612;2022-09-20T16:29:14;14.10;99.90
33460;DHT22;19795;53.160;6.612;2022-09-20T16:31:55;14.20;99.90
33460;DHT22;19795;53.160;6.612;2022-09-20T16:34:25;14.20;99.90
33460;DHT22;19795;53.160;6.612;2022-09-20T16:37:03;14.20;99.90
33460;DHT22;19795;53.160;6.612;2022-09-20T16:39:53;14.20;99.90
33460;DHT22;19795;53.160;6.612;2022-09-20T16:42:24;14.20;99.90
33460;DHT22;19795;53.160;6.612;2022-09-20T16:44:50;14.30;99.90
33460;DHT22;19795;53.160;6.612;2022-09-20T16:47:16;14.10;99.90
33460;DHT22;19795;53.160;6.612;2022-09-20T16:49:46;14.10;99.90
33460;DHT22;19795;53.160;6.612;2022-09-20T16:52:13;14.00;99.90
33460;DHT22;19795;53.160;6.612;2022-09-20T16:54:39;14.00;99.90
33460;DHT22;19795;53.160;6.612;2022-09-20T16:57:05;14.00;99.90
33460;DHT22;19795;53.160;6.612;2022-09-20T16:59:31;13.90;99.90
33460;DHT22;19795;53.160;6.612;2022-09-20T17:01:56;13.90;99.90
33460;DHT22;19795;53.160;6.612;2022-09-20T17:04:22;13.90;99.90
33460;DHT22;19795;53.160;6.612;2022-09-20T17:06:49;13.80;99.90
33460;DHT22;19795;53.160;6.612;2022-09-20T17:09:16;13.70;99.90
33460;DHT22;19795;53.160;6.612;2022-09-20T17:11:46;13.70;99.90
33460;DHT22;19795;53.160;6.612;2022-09-20T17:14:14;13.80;99.90
33460;DHT22;19795;53.160;6.612;2022-09-20T17:16:42;13.70;99.90
33460;DHT22;19795;53.160;6.612;2022-09-20T17:19:13;13.70;99.90
33460;DHT22;19795;53.160;6.612;2022-09-20T17:21:42;13.70;99.90
33460;DHT22;19795;53.160;6.612;2022-09-20T17:24:09;13.60;99.90
33460;DHT22;19795;53.160;6.612;2022-09-20T17:26:37;13.50;99.90
33460;DHT22;19795;53.160;6.612;2022-09-20T17:29:07;13.50;99.90
33460;DHT22;19795;53.160;6.612;2022-09-20T17:31:37;13.50;99.90
33460;DHT22;19795;53.160;6.612;2022-09-20T17:34:05;13.40;99.90
33460;DHT22;19795;53.160;6.612;2022-09-20T17:36:43;13.30;99.90
33460;DHT22;19795;53.160;6.612;2022-09-20T17:39:10;13.20;99.90
33460;DHT22;19795;53.160;6.612;2022-09-20T17:41:46;13.20;99.90
33460;DHT22;19795;53.160;6.612;2022-09-20T17:44:22;13.10;99.90
33460;DHT22;19795;53.160;6.612;2022-09-20T17:46:49;13.10;99.90
33460;DHT22;19795;53.160;6.612;2022-09-20T17:49:20;13.10;99.90
33460;DHT22;19795;53.160;6.612;2022-09-20T17:51:51;13.00;99.90
33460;DHT22;19795;53.160;6.612;2022-09-20T17:54:17;12.90;99.90
33460;DHT22;19795;53.160;6.612;2022-09-20T17:56:45;12.70;99.90
33460;DHT22;19795;53.160;6.612;2022-09-20T17:59:12;12.80;99.90
33460;DHT22;19795;53.160;6.612;2022-09-20T18:01:40;12.50;99.90
33460;DHT22;19795;53.160;6.612;2022-09-20T18:04:07;12.40;99.90
33460;DHT22;19795;53.160;6.612;2022-09-20T18:06:41;12.30;99.90
33460;DHT22;19795;53.160;6.612;2022-09-20T18:09:14;12.20;99.90
33460;DHT22;19795;53.160;6.612;2022-09-20T18:11:42;12.30;99.90
33460;DHT22;19795;53.160;6.612;2022-09-20T18:14:18;11.80;99.90
33460;DHT22;19795;53.160;6.612;2022-09-20T18:16:45;11.80;99.90
33460;DHT22;19795;53.160;6.612;2022-09-20T18:19:12;11.60;99.90
33460;DHT22;19795;53.160;6.612;2022-09-20T18:21:40;11.40;99.90
33460;DHT22;19795;53.160;6.612;2022-09-20T18:24:08;11.30;99.90
33460;DHT22;19795;53.160;6.612;2022-09-20T18:26:43;11.20;99.90
33460;DHT22;19795;53.160;6.612;2022-09-20T18:29:16;11.10;99.90
33460;DHT22;19795;53.160;6.612;2022-09-20T18:31:47;10.90;99.90
33460;DHT22;19795;53.160;6.612;2022-09-20T18:34:20;10.80;99.90
33460;DHT22;19795;53.160;6.612;2022-09-20T18:36:52;10.70;99.90
33460;DHT22;19795;53.160;6.612;2022-09-20T18:39:25;10.60;99.90
33460;DHT22;19795;53.160;6.612;2022-09-20T18:42:17;10.50;99.90
33460;DHT22;19795;53.160;6.612;2022-09-20T18:44:45;10.50;99.90
33460;DHT22;19795;53.160;6.612;2022-09-20T18:47:14;10.30;99.90
33460;DHT22;19795;53.160;6.612;2022-09-20T18:49:40;10.20;99.90
33460;DHT22;19795;53.160;6.612;2022-09-20T18:52:09;10.10;99.90
33460;DHT22;19795;53.160;6.612;2022-09-20T18:54:37;10.10;99.90
33460;DHT22;19795;53.160;6.612;2022-09-20T18:57:03;10.10;99.90
33460;DHT22;19795;53.160;6.612;2022-09-20T18:59:29;10.00;99.90
33460;DHT22;19795;53.160;6.612;2022-09-20T19:12:48;9.60;99.90
33460;DHT22;19795;53.160;6.612;2022-09-20T19:21:19;9.40;99.90
33460;DHT22;19795;53.160;6.612;2022-09-20T19:24:13;9.40;99.90
33460;DHT22;19795;53.160;6.612;2022-09-20T19:26:40;9.30;99.90
33460;DHT22;19795;53.160;6.612;2022-09-20T19:29:23;9.20;99.90
33460;DHT22;19795;53.160;6.612;2022-09-20T19:31:54;9.20;99.90
33460;DHT22;19795;53.160;6.612;2022-09-20T19:34:27;9.10;99.90
33460;DHT22;19795;53.160;6.612;2022-09-20T19:37:08;9.10;99.90
33460;DHT22;19795;53.160;6.612;2022-09-20T19:50:58;9.10;99.90
33460;DHT22;19795;53.160;6.612;2022-09-20T19:53:26;9.10;99.90
33460;DHT22;19795;53.160;6.612;2022-09-20T19:55:56;9.00;99.90
33460;DHT22;19795;53.160;6.612;2022-09-20T19:58:24;9.20;99.90
33460;DHT22;19795;53.160;6.612;2022-09-20T20:00:50;8.90;99.90
33460;DHT22;19795;53.160;6.612;2022-09-20T20:03:16;8.80;99.90
33460;DHT22;19795;53.160;6.612;2022-09-20T20:06:06;9.00;99.90
33460;DHT22;19795;53.160;6.612;2022-09-20T20:08:50;8.80;99.90
33460;DHT22;19795;53.160;6.612;2022-09-20T20:14:20;8.60;99.90
33460;DHT22;19795;53.160;6.612;2022-09-20T20:26:08;8.70;99.90
33460;DHT22;19795;53.160;6.612;2022-09-20T20:28:36;8.60;99.90
33460;DHT22;19795;53.160;6.612;2022-09-20T20:31:05;8.60;99.90
33460;DHT22;19795;53.160;6.612;2022-09-20T20:33:31;8.60;99.90
33460;DHT22;19795;53.160;6.612;2022-09-20T20:35:59;8.50;99.90
33460;DHT22;19795;53.160;6.612;2022-09-20T20:38:26;8.40;99.90
33460;DHT22;19795;53.160;6.612;2022-09-20T20:41:00;8.40;99.90
33460;DHT22;19795;53.160;6.612;2022-09-20T20:43:29;8.50;99.90
33460;DHT22;19795;53.160;6.612;2022-09-20T20:45:55;8.30;99.90
33460;DHT22;19795;53.160;6.612;2022-09-20T20:48:21;8.60;99.90
33460;DHT22;19795;53.160;6.612;2022-09-20T20:50:47;8.40;99.90
33460;DHT22;19795;53.160;6.612;2022-09-20T20:53:13;8.30;99.90
33460;DHT22;19795;53.160;6.612;2022-09-20T20:55:39;8.30;99.90
33460;DHT22;19795;53.160;6.612;2022-09-20T20:58:05;8.30;99.90
33460;DHT22;19795;53.160;6.612;2022-09-20T21:00:32;8.20;99.90
33460;DHT22;19795;53.160;6.612;2022-09-20T21:02:59;8.10;99.90
33460;DHT22;19795;53.160;6.612;2022-09-20T21:05:25;8.00;99.90
33460;DHT22;19795;53.160;6.612;2022-09-20T21:07:52;8.20;99.90
33460;DHT22;19795;53.160;6.612;2022-09-20T21:10:19;8.00;99.90
